Apex, North Carolina
Current Conditions -  °F | °C
As of 10:51 AM on Monday 26 Jan 2015 (Local Time) from KRDU Reporting Station
Broken Clouds Broken Clouds  
Wind Chill: 44°   Ceiling: 6000
Heat Index: 46°   Visibility: 10mi
Dew Point: 41°   Wind: 5mph
Humidity: 83%   Direction: 50°NE
Pressure: 29.65"   Gusts: NA
Location:  35.73°N, 78.84°W
Report Text: KRDU 261551Z 05004KT 10SM SCT005 BKN060 BKN090 BKN250 08/05 A2965 RMK AO2 SLP039 T00780050
Loading
Personal Weather Stations






























Interactive Weather Map New forecast layout! Learn more

10-Day Weather Forecast

Advertisements
Track Severe Weather on mobile